Fatcat — WDA6645 — position and weather

sailwx.info

Track history (hours):
 
Tides and Currents Weather Stations Pressure Air Temp Water Temp Dewpoint Dewpoint Depression Visibility Wind Speed Wind Dir Waves Ship Positions

Fatcat

Owner: TAURUS MARINE, SAN FRANCISCO, CA. More information available from US FCC via Universal Licensing System and Coast Guard Vessel Documentation Center.

Last reported at 2018-Feb-24 02:26 UTC. Time now 2018-Feb-24 19:42 UTC.
Position N 37°46' W 122°23'.

Length 20 m; draft 3 m.

Type: Ship (hazmat cat A). MMSI: 366834640.

Date/timePositionNaut miles runAvg speedWind from/ knotsBaromVisibWave heightAir tempDewpointWater temp
2018-Feb-24 02:26N 37°46' W 122°23'3 6.4
2018-Feb-24 02:01N 37°46' W 122°20'1 2.1
2018-Feb-24 01:31N 37°46' W 122°18'0 0.7
2018-Feb-24 01:01N 37°47' W 122°18'0 0.0
2018-Feb-24 00:30N 37°47' W 122°18'0 0.1
2018-Feb-24 00:01N 37°47' W 122°18'0 0.0
2018-Feb-23 23:31N 37°47' W 122°18'0 0.0
2018-Feb-23 23:01N 37°47' W 122°18'0 0.0
2018-Feb-23 22:31N 37°47' W 122°18'0 0.0
2018-Feb-23 22:01N 37°47' W 122°18'0 0.0
2018-Feb-23 21:31N 37°47' W 122°18'0 0.0
2018-Feb-23 21:01N 37°47' W 122°18'0 0.0
2018-Feb-23 20:30N 37°47' W 122°18'0 0.1
2018-Feb-23 20:01N 37°47' W 122°18'0 0.2
2018-Feb-23 19:30N 37°47' W 122°18'0 0.0
2018-Feb-23 19:01N 37°47' W 122°18'0 0.0
2018-Feb-23 18:30N 37°47' W 122°18'0 0.0
2018-Feb-23 18:00N 37°47' W 122°18'0 0.0
2018-Feb-23 17:30N 37°47' W 122°18'0 0.0
2018-Feb-23 17:00N 37°47' W 122°18'0 0.0
2018-Feb-23 16:31N 37°47' W 122°18'0 0.0
2018-Feb-23 16:01N 37°47' W 122°18'0 0.2
2018-Feb-23 15:31N 37°47' W 122°18'0 0.8
2018-Feb-23 15:01N 37°46' W 122°18'0 0.7
2018-Feb-23 14:30N 37°46' W 122°18'2 4.8
2018-Feb-23 14:01N 37°47' W 122°21'2 4.3
2018-Feb-23 13:29N 37°48' W 122°23'0 0.0
2018-Feb-23 13:01N 37°48' W 122°23'1 2.5
2018-Feb-23 12:30N 37°46' W 122°23'0 0.0
2018-Feb-22 23:30N 37°46' W 122°23'2 4.4
2018-Feb-22 23:00N 37°49' W 122°23'4 7.9
2018-Feb-22 22:30N 37°53' W 122°24'2 3.9
2018-Feb-22 22:00N 37°54' W 122°22'1 2.4
2018-Feb-22 21:30N 37°55' W 122°22'1 1.3
2018-Feb-22 20:59N 37°55' W 122°22'2 3.3
2018-Feb-22 20:30N 37°54' W 122°24'2 5.0
2018-Feb-22 20:00N 37°52' W 122°24'3 6.1
2018-Feb-22 19:30N 37°49' W 122°23'1 2.1
2018-Feb-22 19:00N 37°48' W 122°23'0 0.0
2018-Feb-22 18:30N 37°48' W 122°23'0 0.0
2018-Feb-22 18:00N 37°48' W 122°23'0 0.0
2018-Feb-22 17:30N 37°48' W 122°23'0 0.0
2018-Feb-22 17:00N 37°48' W 122°23'0 0.0
2018-Feb-22 16:30N 37°48' W 122°23'0 0.0
2018-Feb-22 16:00N 37°48' W 122°23'0 0.0
2018-Feb-22 15:30N 37°48' W 122°23'0 0.0
2018-Feb-22 15:00N 37°48' W 122°23'1 1.3
2018-Feb-22 14:30N 37°48' W 122°23'3 6.1
2018-Feb-22 14:00N 37°51' W 122°24'3 5.8
2018-Feb-22 13:30N 37°54' W 122°23'1 2.8
2018-Feb-22 13:00N 37°55' W 122°22'1 2.5
2018-Feb-22 12:30N 37°54' W 122°23'3 6.2
2018-Feb-22 12:00N 37°51' W 122°23'4 7.3
2018-Feb-22 11:30N 37°48' W 122°23'1 0.2
2018-Feb-22 05:03N 37°46' W 122°23'0 0.0
2018-Feb-22 05:00N 37°46' W 122°23'2 3.4
2018-Feb-22 04:30N 37°48' W 122°23'4 7.0
2018-Feb-22 03:59N 37°52' W 122°24'3 5.5
2018-Feb-22 03:30N 37°54' W 122°22'1 1.4
2018-Feb-22 03:00N 37°55' W 122°22'0 0.9
2018-Feb-22 02:30N 37°55' W 122°22'0 0.0
2018-Feb-22 01:59N 37°55' W 122°22'0 0.0
2018-Feb-22 01:30N 37°55' W 122°22'0 0.0
2018-Feb-22 01:00N 37°55' W 122°22'1 1.3
2018-Feb-22 00:30N 37°55' W 122°22'3 5.2
2018-Feb-22 00:00N 37°52' W 122°24'4 7.6
2018-Feb-21 23:30N 37°49' W 122°23'2 4.4
2018-Feb-21 23:00N 37°46' W 122°23'0 0.0
2018-Feb-21 22:30N 37°46' W 122°23'0 0.2
2018-Feb-21 22:00N 37°46' W 122°23'3 5.1
2018-Feb-21 21:30N 37°44' W 122°21'1 1.9
2018-Feb-21 21:00N 37°43' W 122°21'4 7.1
2018-Feb-21 20:30N 37°46' W 122°23'0 0.0
2018-Feb-21 20:01N 37°46' W 122°23'0 0.0
2018-Feb-21 19:30N 37°46' W 122°23'0 0.0
2018-Feb-21 19:00N 37°46' W 122°23'0 0.1
2018-Feb-21 18:31N 37°47' W 122°23'2 3.7
2018-Feb-21 18:00N 37°48' W 122°21'3 5.7
2018-Feb-21 17:30N 37°48' W 122°18'0 0.3
2018-Feb-21 17:01N 37°47' W 122°17'1 1.2
2018-Feb-21 16:30N 37°48' W 122°18'3 5.9
2018-Feb-21 16:00N 37°47' W 122°22'1 0.0
2018-Feb-20 02:41N 37°46' W 122°23'0 0.4
2018-Feb-20 02:30N 37°47' W 122°23'  
2018-Feb-17 21:02N 37°46' W 122°23'0 0.4
2018-Feb-17 21:00N 37°46' W 122°23'0 0.1
2018-Feb-17 20:30N 37°46' W 122°23'0 0.1
2018-Feb-17 20:00N 37°46' W 122°23'2 3.8
2018-Feb-17 19:30N 37°45' W 122°22'0 0.0
2018-Feb-17 19:00N 37°45' W 122°22'0 0.0
2018-Feb-17 18:30N 37°45' W 122°22'0 0.2
2018-Feb-17 18:00N 37°45' W 122°22'2 0.1
2018-Feb-16 22:31N 37°46' W 122°23'0 0.0
2018-Feb-16 22:30N 37°46' W 122°23'3 5.9
2018-Feb-16 22:00N 37°49' W 122°24'4 8.3
2018-Feb-16 21:30N 37°54' W 122°25'4 8.7
2018-Feb-16 21:00N 37°58' W 122°26'5 7.7
2018-Feb-16 20:22N 38°02' W 122°22'3 7.7
2018-Feb-16 20:00N 38°03' W 122°19'4 7.3
2018-Feb-16 19:30N 38°04' W 122°15'2 2.9
2018-Feb-16 18:57N 38°06' W 122°16'0 0.2
2018-Feb-16 18:28N 38°06' W 122°16'0 0.1
2018-Feb-16 18:00N 38°06' W 122°16'0 0.1
2018-Feb-16 17:21N 38°06' W 122°16'0 0.3
2018-Feb-16 16:43N 38°06' W 122°16'0 0.4
2018-Feb-16 16:27N 38°06' W 122°16'0 0.1
2018-Feb-16 15:56N 38°06' W 122°16'0 0.0
2018-Feb-16 15:22N 38°06' W 122°16'0 0.0
2018-Feb-16 14:58N 38°06' W 122°16'0 0.0
2018-Feb-16 02:14N 38°05' W 122°16'1 5.0
2018-Feb-16 02:00N 38°05' W 122°15'3 5.4
2018-Feb-16 01:30N 38°03' W 122°18'3 5.3
2018-Feb-16 01:00N 38°02' W 122°21'3 5.9
2018-Feb-16 00:30N 38°00' W 122°24'3 6.3
2018-Feb-16 00:00N 37°58' W 122°26'3 6.3
2018-Feb-15 23:30N 37°55' W 122°25'3 6.6
2018-Feb-15 23:00N 37°51' W 122°24'5 9.7
2018-Feb-15 22:30N 37°47' W 122°23'0 0.0
2018-Feb-15 02:40N 37°46' W 122°23'0 0.3
2018-Feb-15 02:30N 37°46' W 122°23'2 4.3
2018-Feb-15 02:00N 37°45' W 122°21'0 0.1
2018-Feb-15 01:30N 37°46' W 122°21'0 0.2
2018-Feb-15 01:00N 37°46' W 122°21'0 0.1
2018-Feb-15 00:30N 37°46' W 122°21'0 0.0
2018-Feb-15 00:00N 37°46' W 122°21'0 0.0
2018-Feb-14 23:29N 37°46' W 122°21'0 0.1
2018-Feb-14 23:00N 37°46' W 122°21'1 2.0
2018-Feb-14 22:30N 37°46' W 122°22'1 0.2
2018-Feb-14 16:58N 37°46' W 122°23'0 0.5
2018-Feb-14 16:30N 37°47' W 122°23'0 0.7
2018-Feb-14 16:00N 37°46' W 122°23'1 2.6
2018-Feb-14 15:30N 37°45' W 122°22'1 1.3
2018-Feb-14 15:00N 37°45' W 122°23'1 1.5
2018-Feb-14 14:30N 37°45' W 122°23'  
Track history (hours):
 
Tides and Currents Weather Stations Pressure Air Temp Water Temp Dewpoint Dewpoint Depression Visibility Wind Speed Wind Dir Waves Ship Positions

Fatcat

Owner: TAURUS MARINE, SAN FRANCISCO, CA. More information available from US FCC via Universal Licensing System and Coast Guard Vessel Documentation Center.

Last reported at 2018-Feb-24 02:26 UTC. Time now 2018-Feb-24 19:42 UTC.
Position N 37°46' W 122°23'.

Length 20 m; draft 3 m.

Type: Ship (hazmat cat A). MMSI: 366834640.

Date/timePositionNaut miles runAvg speedWind from/ knotsBaromVisibWave heightAir tempDewpointWater temp
2018-Feb-24 02:26N 37°46' W 122°23'3 6.4
2018-Feb-24 02:01N 37°46' W 122°20'1 2.1
2018-Feb-24 01:31N 37°46' W 122°18'0 0.7
2018-Feb-24 01:01N 37°47' W 122°18'0 0.0
2018-Feb-24 00:30N 37°47' W 122°18'0 0.1
2018-Feb-24 00:01N 37°47' W 122°18'0 0.0
2018-Feb-23 23:31N 37°47' W 122°18'0 0.0
2018-Feb-23 23:01N 37°47' W 122°18'0 0.0
2018-Feb-23 22:31N 37°47' W 122°18'0 0.0
2018-Feb-23 22:01N 37°47' W 122°18'0 0.0
2018-Feb-23 21:31N 37°47' W 122°18'0 0.0
2018-Feb-23 21:01N 37°47' W 122°18'0 0.0
2018-Feb-23 20:30N 37°47' W 122°18'0 0.1
2018-Feb-23 20:01N 37°47' W 122°18'0 0.2
2018-Feb-23 19:30N 37°47' W 122°18'0 0.0
2018-Feb-23 19:01N 37°47' W 122°18'0 0.0
2018-Feb-23 18:30N 37°47' W 122°18'0 0.0
2018-Feb-23 18:00N 37°47' W 122°18'0 0.0
2018-Feb-23 17:30N 37°47' W 122°18'0 0.0
2018-Feb-23 17:00N 37°47' W 122°18'0 0.0
2018-Feb-23 16:31N 37°47' W 122°18'0 0.0
2018-Feb-23 16:01N 37°47' W 122°18'0 0.2
2018-Feb-23 15:31N 37°47' W 122°18'0 0.8
2018-Feb-23 15:01N 37°46' W 122°18'0 0.7
2018-Feb-23 14:30N 37°46' W 122°18'2 4.8
2018-Feb-23 14:01N 37°47' W 122°21'2 4.3
2018-Feb-23 13:29N 37°48' W 122°23'0 0.0
2018-Feb-23 13:01N 37°48' W 122°23'1 2.5
2018-Feb-23 12:30N 37°46' W 122°23'0 0.0
2018-Feb-22 23:30N 37°46' W 122°23'2 4.4
2018-Feb-22 23:00N 37°49' W 122°23'4 7.9
2018-Feb-22 22:30N 37°53' W 122°24'2 3.9
2018-Feb-22 22:00N 37°54' W 122°22'1 2.4
2018-Feb-22 21:30N 37°55' W 122°22'1 1.3
2018-Feb-22 20:59N 37°55' W 122°22'2 3.3
2018-Feb-22 20:30N 37°54' W 122°24'2 5.0
2018-Feb-22 20:00N 37°52' W 122°24'3 6.1
2018-Feb-22 19:30N 37°49' W 122°23'1 2.1
2018-Feb-22 19:00N 37°48' W 122°23'0 0.0
2018-Feb-22 18:30N 37°48' W 122°23'0 0.0
2018-Feb-22 18:00N 37°48' W 122°23'0 0.0
2018-Feb-22 17:30N 37°48' W 122°23'0 0.0
2018-Feb-22 17:00N 37°48' W 122°23'0 0.0
2018-Feb-22 16:30N 37°48' W 122°23'0 0.0
2018-Feb-22 16:00N 37°48' W 122°23'0 0.0
2018-Feb-22 15:30N 37°48' W 122°23'0 0.0
2018-Feb-22 15:00N 37°48' W 122°23'1 1.3
2018-Feb-22 14:30N 37°48' W 122°23'3 6.1
2018-Feb-22 14:00N 37°51' W 122°24'3 5.8
2018-Feb-22 13:30N 37°54' W 122°23'1 2.8
2018-Feb-22 13:00N 37°55' W 122°22'1 2.5
2018-Feb-22 12:30N 37°54' W 122°23'3 6.2
2018-Feb-22 12:00N 37°51' W 122°23'4 7.3
2018-Feb-22 11:30N 37°48' W 122°23'1 0.2
2018-Feb-22 05:03N 37°46' W 122°23'0 0.0
2018-Feb-22 05:00N 37°46' W 122°23'2 3.4
2018-Feb-22 04:30N 37°48' W 122°23'4 7.0
2018-Feb-22 03:59N 37°52' W 122°24'3 5.5
2018-Feb-22 03:30N 37°54' W 122°22'1 1.4
2018-Feb-22 03:00N 37°55' W 122°22'0 0.9
2018-Feb-22 02:30N 37°55' W 122°22'0 0.0
2018-Feb-22 01:59N 37°55' W 122°22'0 0.0
2018-Feb-22 01:30N 37°55' W 122°22'0 0.0
2018-Feb-22 01:00N 37°55' W 122°22'1 1.3
2018-Feb-22 00:30N 37°55' W 122°22'3 5.2
2018-Feb-22 00:00N 37°52' W 122°24'4 7.6
2018-Feb-21 23:30N 37°49' W 122°23'2 4.4
2018-Feb-21 23:00N 37°46' W 122°23'0 0.0
2018-Feb-21 22:30N 37°46' W 122°23'0 0.2
2018-Feb-21 22:00N 37°46' W 122°23'3 5.1
2018-Feb-21 21:30N 37°44' W 122°21'1 1.9
2018-Feb-21 21:00N 37°43' W 122°21'4 7.1
2018-Feb-21 20:30N 37°46' W 122°23'0 0.0
2018-Feb-21 20:01N 37°46' W 122°23'0 0.0
2018-Feb-21 19:30N 37°46' W 122°23'0 0.0
2018-Feb-21 19:00N 37°46' W 122°23'0 0.1
2018-Feb-21 18:31N 37°47' W 122°23'2 3.7
2018-Feb-21 18:00N 37°48' W 122°21'3 5.7
2018-Feb-21 17:30N 37°48' W 122°18'0 0.3
2018-Feb-21 17:01N 37°47' W 122°17'1 1.2
2018-Feb-21 16:30N 37°48' W 122°18'3 5.9
2018-Feb-21 16:00N 37°47' W 122°22'1 0.0
2018-Feb-20 02:41N 37°46' W 122°23'0 0.4
2018-Feb-20 02:30N 37°47' W 122°23'  
2018-Feb-17 21:02N 37°46' W 122°23'0 0.4
2018-Feb-17 21:00N 37°46' W 122°23'0 0.1
2018-Feb-17 20:30N 37°46' W 122°23'0 0.1
2018-Feb-17 20:00N 37°46' W 122°23'2 3.8
2018-Feb-17 19:30N 37°45' W 122°22'0 0.0
2018-Feb-17 19:00N 37°45' W 122°22'0 0.0
2018-Feb-17 18:30N 37°45' W 122°22'0 0.2
2018-Feb-17 18:00N 37°45' W 122°22'2 0.1
2018-Feb-16 22:31N 37°46' W 122°23'0 0.0
2018-Feb-16 22:30N 37°46' W 122°23'3 5.9
2018-Feb-16 22:00N 37°49' W 122°24'4 8.3
2018-Feb-16 21:30N 37°54' W 122°25'4 8.7
2018-Feb-16 21:00N 37°58' W 122°26'5 7.7
2018-Feb-16 20:22N 38°02' W 122°22'3 7.7
2018-Feb-16 20:00N 38°03' W 122°19'4 7.3
2018-Feb-16 19:30N 38°04' W 122°15'2 2.9
2018-Feb-16 18:57N 38°06' W 122°16'0 0.2
2018-Feb-16 18:28N 38°06' W 122°16'0 0.1
2018-Feb-16 18:00N 38°06' W 122°16'0 0.1
2018-Feb-16 17:21N 38°06' W 122°16'0 0.3
2018-Feb-16 16:43N 38°06' W 122°16'0 0.4
2018-Feb-16 16:27N 38°06' W 122°16'0 0.1
2018-Feb-16 15:56N 38°06' W 122°16'0 0.0
2018-Feb-16 15:22N 38°06' W 122°16'0 0.0
2018-Feb-16 14:58N 38°06' W 122°16'0 0.0
2018-Feb-16 02:14N 38°05' W 122°16'1 5.0
2018-Feb-16 02:00N 38°05' W 122°15'3 5.4
2018-Feb-16 01:30N 38°03' W 122°18'3 5.3
2018-Feb-16 01:00N 38°02' W 122°21'3 5.9
2018-Feb-16 00:30N 38°00' W 122°24'3 6.3
2018-Feb-16 00:00N 37°58' W 122°26'3 6.3
2018-Feb-15 23:30N 37°55' W 122°25'3 6.6
2018-Feb-15 23:00N 37°51' W 122°24'5 9.7
2018-Feb-15 22:30N 37°47' W 122°23'0 0.0
2018-Feb-15 02:40N 37°46' W 122°23'0 0.3
2018-Feb-15 02:30N 37°46' W 122°23'2 4.3
2018-Feb-15 02:00N 37°45' W 122°21'0 0.1
2018-Feb-15 01:30N 37°46' W 122°21'0 0.2
2018-Feb-15 01:00N 37°46' W 122°21'0 0.1
2018-Feb-15 00:30N 37°46' W 122°21'0 0.0
2018-Feb-15 00:00N 37°46' W 122°21'0 0.0
2018-Feb-14 23:29N 37°46' W 122°21'0 0.1
2018-Feb-14 23:00N 37°46' W 122°21'1 2.0
2018-Feb-14 22:30N 37°46' W 122°22'1 0.2
2018-Feb-14 16:58N 37°46' W 122°23'0 0.5
2018-Feb-14 16:30N 37°47' W 122°23'0 0.7
2018-Feb-14 16:00N 37°46' W 122°23'1 2.6
2018-Feb-14 15:30N 37°45' W 122°22'1 1.3
2018-Feb-14 15:00N 37°45' W 122°23'1 1.5
2018-Feb-14 14:30N 37°45' W 122°23'  

Dump ship's entire track history